Time;durP1;ratioP1;P1;durP2;ratioP2;P2;SDS_P1;SDS_P2;PMS_P1;PMS_P2;Temp;Humidity;BMP_temperature;BMP_pressure;BME280_temperature;BME280_humidity;BME280_pressure;Samples;Min_cycle;Max_cycle;Signal;HPM_P1;HPM_P2
2022/11/23 00:01:28;;;;;;;16.83;12.68;;;;;;;;;;5045568;28;20135;-68
2022/11/23 00:03:55;;;;;;;19.30;12.77;;;;;;;;;;5044085;28;20083;-70
2022/11/23 00:06:22;;;;;;;19.38;13.43;;;;;;;;;;5047204;28;20053;-69
2022/11/23 00:08:49;;;;;;;16.25;12.32;;;;;;;;;;5043889;28;20507;-68
2022/11/23 00:11:15;;;;;;;19.27;12.98;;;;;;;;;;5044301;28;20081;-69
2022/11/23 00:13:41;;;;;;;28.02;13.18;;;;;;;;;;5045423;28;20045;-68
2022/11/23 00:16:08;;;;;;;16.13;11.93;;;;;;;;;;5047008;28;20051;-68
2022/11/23 00:18:34;;;;;;;19.90;12.15;;;;;;;;;;5043196;28;20044;-69
2022/11/23 00:21:00;;;;;;;16.70;11.90;;;;;;;;;;5040252;28;20090;-66
2022/11/23 00:23:26;;;;;;;18.83;12.50;;;;;;;;;;5045686;28;20045;-69
2022/11/23 00:25:52;;;;;;;19.63;12.07;;;;;;;;;;5045331;28;20048;-70
2022/11/23 00:28:18;;;;;;;22.30;13.18;;;;;;;;;;5042464;28;20095;-70
2022/11/23 00:30:48;;;;;;;24.60;12.60;;;;;;;;;;5043198;28;20049;-69
2022/11/23 00:33:14;;;;;;;16.23;12.45;;;;;;;;;;5029534;28;20048;-69
2022/11/23 00:35:40;;;;;;;26.65;13.45;;;;;;;;;;5042143;28;20045;-69
2022/11/23 00:38:06;;;;;;;19.88;13.45;;;;;;;;;;5045656;28;20040;-69
2022/11/23 00:40:31;;;;;;;19.80;12.80;;;;;;;;;;5044700;28;20417;-70
2022/11/23 00:42:57;;;;;;;21.42;13.15;;;;;;;;;;5042582;28;20051;-70
2022/11/23 00:45:23;;;;;;;23.38;13.35;;;;;;;;;;5046043;28;20080;-69
2022/11/23 00:47:49;;;;;;;21.67;13.73;;;;;;;;;;5044166;28;20047;-70
2022/11/23 00:50:16;;;;;;;21.52;12.95;;;;;;;;;;5025181;28;20045;-69
2022/11/23 00:52:42;;;;;;;22.70;13.73;;;;;;;;;;5043918;28;20048;-68
2022/11/23 00:55:08;;;;;;;27.25;14.10;;;;;;;;;;5027668;28;20052;-69
2022/11/23 00:57:34;;;;;;;22.55;13.20;;;;;;;;;;5045440;28;20044;-70
2022/11/23 01:00:00;;;;;;;19.80;13.20;;;;;;;;;;5041798;28;20041;-68
2022/11/23 01:02:26;;;;;;;18.63;12.68;;;;;;;;;;5044349;28;20215;-69
2022/11/23 01:04:52;;;;;;;21.58;13.30;;;;;;;;;;5045601;28;20048;-70
2022/11/23 01:07:18;;;;;;;24.80;13.30;;;;;;;;;;5042656;28;20049;-70
2022/11/23 01:09:44;;;;;;;18.33;12.85;;;;;;;;;;5043871;28;20041;-69
2022/11/23 01:12:10;;;;;;;19.92;13.07;;;;;;;;;;5043768;28;20155;-70
2022/11/23 01:14:36;;;;;;;19.63;12.73;;;;;;;;;;5046228;28;20071;-70
2022/11/23 01:17:02;;;;;;;24.40;13.20;;;;;;;;;;5044623;28;20072;-70
2022/11/23 01:19:29;;;;;;;17.85;12.93;;;;;;;;;;5042175;28;20045;-70
2022/11/23 01:21:55;;;;;;;20.70;12.73;;;;;;;;;;5044675;28;20060;-68
2022/11/23 01:24:22;;;;;;;19.30;12.27;;;;;;;;;;5043461;28;20396;-69
2022/11/23 01:26:51;;;;;;;21.05;13.32;;;;;;;;;;5027167;28;20215;-69
2022/11/23 01:29:17;;;;;;;21.50;13.00;;;;;;;;;;5042780;28;20724;-69
2022/11/23 01:31:44;;;;;;;17.92;12.63;;;;;;;;;;5043458;28;20049;-69
2022/11/23 01:34:11;;;;;;;21.00;13.07;;;;;;;;;;5045238;28;20044;-69
2022/11/23 01:36:37;;;;;;;19.77;13.18;;;;;;;;;;5044366;28;20048;-70
2022/11/23 01:39:03;;;;;;;20.10;12.88;;;;;;;;;;5044562;28;20044;-69
2022/11/23 01:41:31;;;;;;;20.30;12.88;;;;;;;;;;5041553;28;20037;-70
2022/11/23 01:43:57;;;;;;;21.52;12.90;;;;;;;;;;5045385;28;20068;-69
2022/11/23 01:46:23;;;;;;;24.58;13.77;;;;;;;;;;5043619;28;20076;-70
2022/11/23 01:48:55;;;;;;;17.73;12.88;;;;;;;;;;5041985;28;20040;-69
2022/11/23 01:51:23;;;;;;;18.05;12.80;;;;;;;;;;5041417;28;20041;-69
2022/11/23 01:53:51;;;;;;;20.40;13.25;;;;;;;;;;5044027;28;20052;-70
2022/11/23 01:56:18;;;;;;;20.17;13.35;;;;;;;;;;5043804;28;20108;-68
2022/11/23 01:58:47;;;;;;;21.35;14.35;;;;;;;;;;5042257;28;20043;-69
2022/11/23 02:01:13;;;;;;;20.98;13.35;;;;;;;;;;5045203;28;20037;-69
2022/11/23 02:03:40;;;;;;;22.40;13.45;;;;;;;;;;5044329;28;20339;-69
2022/11/23 02:06:09;;;;;;;21.38;13.70;;;;;;;;;;5041424;28;20060;-69
2022/11/23 02:08:36;;;;;;;17.50;13.52;;;;;;;;;;5044211;28;20068;-69
2022/11/23 02:11:02;;;;;;;24.23;14.55;;;;;;;;;;5044090;28;20069;-70
2022/11/23 02:13:28;;;;;;;17.52;13.60;;;;;;;;;;5045609;28;20045;-72
2022/11/23 02:15:55;;;;;;;19.88;13.57;;;;;;;;;;5041582;28;20072;-70
2022/11/23 02:18:23;;;;;;;19.02;13.48;;;;;;;;;;5042040;28;20041;-70
2022/11/23 02:20:49;;;;;;;19.50;13.35;;;;;;;;;;5023074;28;21736;-71
2022/11/23 02:23:19;;;;;;;20.90;14.00;;;;;;;;;;5040687;28;20175;-71
2022/11/23 02:25:45;;;;;;;22.58;13.98;;;;;;;;;;5041607;28;20114;-70
2022/11/23 02:28:13;;;;;;;20.35;14.45;;;;;;;;;;5043505;28;20052;-69
2022/11/23 02:30:40;;;;;;;20.10;14.63;;;;;;;;;;5042417;28;20124;-70
2022/11/23 02:33:06;;;;;;;23.25;15.15;;;;;;;;;;5038580;28;20077;-70
2022/11/23 02:35:32;;;;;;;22.25;14.60;;;;;;;;;;5042747;28;20048;-70
2022/11/23 02:38:05;;;;;;;22.30;15.07;;;;;;;;;;5044086;28;20041;-71
2022/11/23 02:40:31;;;;;;;;;;;;;;;;;;5041001;28;20069;-69
2022/11/23 02:42:57;;;;;;;23.23;14.82;;;;;;;;;;5041619;28;19943;-71
2022/11/23 02:45:42;;;;;;;22.65;15.20;;;;;;;;;;5043467;28;20136;-69
2022/11/23 02:48:08;;;;;;;22.20;16.10;;;;;;;;;;5043513;28;20060;-70
2022/11/23 02:50:34;;;;;;;21.20;16.08;;;;;;;;;;5041872;28;20053;-69
2022/11/23 02:53:00;;;;;;;23.17;16.13;;;;;;;;;;5041948;28;20046;-72
2022/11/23 02:55:26;;;;;;;29.20;17.35;;;;;;;;;;5044206;28;20053;-71
2022/11/23 02:57:52;;;;;;;27.55;16.83;;;;;;;;;;5042752;28;20068;-71
2022/11/23 03:00:18;;;;;;;30.58;17.27;;;;;;;;;;5044017;28;20557;-71
2022/11/23 03:02:44;;;;;;;26.42;17.77;;;;;;;;;;5042255;28;20060;-71
2022/11/23 03:05:10;;;;;;;27.48;17.60;;;;;;;;;;5043760;28;20139;-71
2022/11/23 03:07:36;;;;;;;29.65;18.08;;;;;;;;;;5042115;28;20045;-71
2022/11/23 03:10:02;;;;;;;25.08;17.35;;;;;;;;;;5041853;28;20045;-71
2022/11/23 03:12:28;;;;;;;27.88;17.63;;;;;;;;;;5044121;28;20053;-72
2022/11/23 03:14:54;;;;;;;31.77;18.77;;;;;;;;;;5042853;28;20527;-70
2022/11/23 03:17:20;;;;;;;32.08;18.80;;;;;;;;;;5045150;28;20040;-71
2022/11/23 03:19:46;;;;;;;31.00;18.42;;;;;;;;;;5042055;28;20049;-70
2022/11/23 03:22:12;;;;;;;30.90;19.13;;;;;;;;;;5045370;28;20059;-71
2022/11/23 03:24:38;;;;;;;31.15;20.35;;;;;;;;;;5047013;28;20191;-72
2022/11/23 03:27:04;;;;;;;30.92;19.80;;;;;;;;;;5045549;28;20046;-71
2022/11/23 03:29:30;;;;;;;33.15;20.75;;;;;;;;;;5045334;28;20045;-71
2022/11/23 03:31:56;;;;;;;36.45;20.77;;;;;;;;;;5043436;28;20071;-72
2022/11/23 03:34:22;;;;;;;39.28;22.10;;;;;;;;;;5046475;28;20088;-71
2022/11/23 03:36:48;;;;;;;36.13;20.77;;;;;;;;;;5045972;28;20053;-71
2022/11/23 03:39:14;;;;;;;33.80;21.42;;;;;;;;;;5046297;28;20510;-70
2022/11/23 03:41:40;;;;;;;40.67;21.65;;;;;;;;;;5045779;28;20167;-71
2022/11/23 03:44:06;;;;;;;33.65;20.88;;;;;;;;;;5045743;28;20160;-71
2022/11/23 03:46:32;;;;;;;37.10;23.00;;;;;;;;;;5046669;28;20052;-72
2022/11/23 03:48:58;;;;;;;44.83;23.10;;;;;;;;;;5046341;28;20048;-73
2022/11/23 03:51:24;;;;;;;39.70;24.50;;;;;;;;;;5045286;28;20045;-75
2022/11/23 03:53:50;;;;;;;48.10;24.05;;;;;;;;;;5031016;28;20045;-74
2022/11/23 03:56:16;;;;;;;43.42;25.15;;;;;;;;;;5046379;28;20072;-73
2022/11/23 03:58:43;;;;;;;42.30;24.55;;;;;;;;;;5047163;28;20032;-71
2022/11/23 04:01:08;;;;;;;43.22;24.38;;;;;;;;;;5043592;28;20476;-71
2022/11/23 04:03:34;;;;;;;38.92;23.95;;;;;;;;;;5046038;28;20052;-71
2022/11/23 04:06:00;;;;;;;43.05;24.80;;;;;;;;;;5046608;28;20041;-72
2022/11/23 04:08:26;;;;;;;42.10;24.42;;;;;;;;;;5046273;28;20052;-72
2022/11/23 04:10:56;;;;;;;39.75;24.73;;;;;;;;;;5046192;28;20052;-71
2022/11/23 04:13:22;;;;;;;41.65;24.15;;;;;;;;;;5045574;28;20048;-73
2022/11/23 04:15:48;;;;;;;45.22;25.13;;;;;;;;;;5049095;28;20071;-73
2022/11/23 04:18:14;;;;;;;45.20;25.50;;;;;;;;;;5041687;28;20047;-72
2022/11/23 04:20:41;;;;;;;40.53;24.77;;;;;;;;;;5045868;28;20065;-72
2022/11/23 04:23:07;;;;;;;41.72;23.52;;;;;;;;;;5042839;28;20268;-72
2022/11/23 04:25:33;;;;;;;40.53;24.25;;;;;;;;;;5046703;28;20069;-72
2022/11/23 04:27:59;;;;;;;39.35;23.95;;;;;;;;;;5045649;28;20075;-72
2022/11/23 04:30:25;;;;;;;41.42;23.95;;;;;;;;;;5043525;28;20408;-72
2022/11/23 04:32:51;;;;;;;44.22;24.75;;;;;;;;;;5046803;28;21305;-72
2022/11/23 04:35:17;;;;;;;43.85;24.25;;;;;;;;;;5044607;28;20128;-70
2022/11/23 04:37:43;;;;;;;43.70;23.48;;;;;;;;;;5045737;28;20113;-72
2022/11/23 04:40:09;;;;;;;40.25;24.45;;;;;;;;;;5044580;28;20076;-72
2022/11/23 04:42:35;;;;;;;45.35;25.08;;;;;;;;;;5046215;28;20041;-73
2022/11/23 04:45:01;;;;;;;41.30;25.15;;;;;;;;;;5026911;28;20045;-71
2022/11/23 04:47:27;;;;;;;44.47;25.05;;;;;;;;;;5045199;28;20084;-72
2022/11/23 04:49:53;;;;;;;44.00;23.88;;;;;;;;;;5043426;28;20041;-72
2022/11/23 04:52:19;;;;;;;43.45;24.50;;;;;;;;;;5045955;28;21022;-70
2022/11/23 04:54:45;;;;;;;40.65;23.88;;;;;;;;;;5044025;28;20090;-70
2022/11/23 04:57:11;;;;;;;43.10;24.30;;;;;;;;;;5043566;28;20092;-70
2022/11/23 04:59:37;;;;;;;45.67;23.88;;;;;;;;;;5046101;28;20135;-70
2022/11/23 05:02:03;;;;;;;40.90;22.88;;;;;;;;;;5045660;28;20037;-70
2022/11/23 05:04:29;;;;;;;38.42;22.13;;;;;;;;;;5028751;28;20098;-72
2022/11/23 05:06:55;;;;;;;34.33;21.80;;;;;;;;;;5045764;28;20045;-70
2022/11/23 05:09:21;;;;;;;37.38;21.80;;;;;;;;;;5042597;28;20049;-70
2022/11/23 05:11:47;;;;;;;42.33;22.10;;;;;;;;;;5041979;28;20072;-71
2022/11/23 05:14:13;;;;;;;39.25;21.33;;;;;;;;;;5044445;28;20040;-70
2022/11/23 05:16:40;;;;;;;38.47;19.85;;;;;;;;;;5044299;28;20044;-72
2022/11/23 05:19:06;;;;;;;34.03;19.17;;;;;;;;;;5043687;28;20079;-70
2022/11/23 05:21:32;;;;;;;33.30;19.60;;;;;;;;;;5042862;28;20045;-72
2022/11/23 05:23:58;;;;;;;34.03;19.08;;;;;;;;;;5042678;28;20037;-72
2022/11/23 05:26:24;;;;;;;37.58;18.80;;;;;;;;;;5045569;28;20049;-72
2022/11/23 05:28:50;;;;;;;32.90;17.58;;;;;;;;;;5044368;28;20095;-72
2022/11/23 05:31:16;;;;;;;27.52;17.20;;;;;;;;;;5042910;28;21754;-72
2022/11/23 05:33:42;;;;;;;34.03;16.88;;;;;;;;;;5043746;28;20086;-70
2022/11/23 05:36:08;;;;;;;33.15;17.20;;;;;;;;;;5044839;28;20044;-73
2022/11/23 05:38:34;;;;;;;31.08;16.60;;;;;;;;;;5044201;28;20095;-73
2022/11/23 05:41:00;;;;;;;29.38;15.13;;;;;;;;;;5045604;28;20040;-72
2022/11/23 05:43:26;;;;;;;31.63;16.55;;;;;;;;;;5043395;28;20044;-72
2022/11/23 05:45:52;;;;;;;25.88;15.73;;;;;;;;;;5042205;28;20041;-73
2022/11/23 05:48:18;;;;;;;31.30;15.27;;;;;;;;;;5044332;28;20126;-73
2022/11/23 05:50:44;;;;;;;26.30;15.38;;;;;;;;;;5044467;28;20056;-73
2022/11/23 05:53:10;;;;;;;26.90;14.77;;;;;;;;;;5042305;28;21879;-73
2022/11/23 05:55:36;;;;;;;26.10;15.07;;;;;;;;;;5044524;28;20093;-73
2022/11/23 05:58:03;;;;;;;31.33;15.32;;;;;;;;;;5040741;28;20127;-73
2022/11/23 06:00:29;;;;;;;26.90;14.30;;;;;;;;;;5044545;28;20033;-73
2022/11/23 06:02:59;;;;;;;27.60;14.40;;;;;;;;;;5043070;28;20051;-73
2022/11/23 06:05:25;;;;;;;27.38;14.05;;;;;;;;;;5044928;28;20065;-74
2022/11/23 06:07:54;;;;;;;25.80;14.40;;;;;;;;;;5045157;28;20136;-75
2022/11/23 06:10:20;;;;;;;28.80;13.73;;;;;;;;;;5039229;28;20515;-74
2022/11/23 06:12:48;;;;;;;29.92;13.80;;;;;;;;;;5042561;28;20049;-73
2022/11/23 06:15:14;;;;;;;28.23;13.63;;;;;;;;;;5040432;28;20094;-75
2022/11/23 06:17:40;;;;;;;22.20;13.05;;;;;;;;;;5036721;28;20513;-72
2022/11/23 06:20:06;;;;;;;25.05;13.02;;;;;;;;;;5039513;28;20057;-72
2022/11/23 06:22:32;;;;;;;28.50;12.93;;;;;;;;;;5038091;28;20049;-75
2022/11/23 06:24:58;;;;;;;28.67;12.25;;;;;;;;;;5039888;28;20049;-72
2022/11/23 06:27:24;;;;;;;24.42;11.30;;;;;;;;;;5042837;28;20048;-72
2022/11/23 06:29:50;;;;;;;22.25;10.80;;;;;;;;;;5040563;28;20048;-71
2022/11/23 06:32:16;;;;;;;24.70;10.65;;;;;;;;;;5031709;28;20057;-73
2022/11/23 06:34:42;;;;;;;21.88;10.55;;;;;;;;;;5036848;28;20056;-72
2022/11/23 06:37:08;;;;;;;22.13;10.23;;;;;;;;;;5040077;28;20049;-73
2022/11/23 06:39:34;;;;;;;23.55;9.90;;;;;;;;;;5035543;28;20254;-73
2022/11/23 06:42:00;;;;;;;23.23;10.07;;;;;;;;;;5023021;28;20141;-71
2022/11/23 06:44:26;;;;;;;27.63;10.13;;;;;;;;;;5045808;28;20073;-71
2022/11/23 06:46:52;;;;;;;18.48;8.90;;;;;;;;;;5044234;28;20056;-71
2022/11/23 06:49:20;;;;;;;22.85;9.38;;;;;;;;;;5038962;28;20056;-72
2022/11/23 06:51:46;;;;;;;26.58;9.90;;;;;;;;;;5037455;28;20048;-70
2022/11/23 06:54:12;;;;;;;26.33;9.52;;;;;;;;;;5044629;28;20048;-70
2022/11/23 06:56:38;;;;;;;24.60;8.93;;;;;;;;;;5043362;28;20041;-71
2022/11/23 06:59:04;;;;;;;24.33;9.27;;;;;;;;;;5023274;28;20041;-72
2022/11/23 07:01:31;;;;;;;21.00;9.75;;;;;;;;;;5028580;28;20041;-71
2022/11/23 07:03:57;;;;;;;25.83;9.55;;;;;;;;;;5042834;28;20052;-70
2022/11/23 07:06:23;;;;;;;23.33;9.25;;;;;;;;;;5041842;28;21680;-70
2022/11/23 07:08:49;;;;;;;21.17;8.95;;;;;;;;;;5042567;28;20041;-70
2022/11/23 07:11:15;;;;;;;22.27;9.35;;;;;;;;;;5043164;28;20049;-70
2022/11/23 07:13:41;;;;;;;23.20;9.85;;;;;;;;;;5026291;28;20491;-70
2022/11/23 07:16:07;;;;;;;21.10;9.43;;;;;;;;;;5043881;28;20048;-70
2022/11/23 07:18:33;;;;;;;29.00;9.77;;;;;;;;;;5041778;28;20061;-70
2022/11/23 07:20:59;;;;;;;22.02;9.20;;;;;;;;;;5043106;28;20048;-70
2022/11/23 07:23:26;;;;;;;24.83;9.55;;;;;;;;;;5041103;28;20045;-70
2022/11/23 07:25:52;;;;;;;19.30;9.00;;;;;;;;;;5041612;28;20071;-70
2022/11/23 07:28:18;;;;;;;26.67;9.40;;;;;;;;;;5042513;28;20049;-71
2022/11/23 07:30:44;;;;;;;27.13;9.60;;;;;;;;;;5040355;28;20153;-69
2022/11/23 07:33:11;;;;;;;25.17;9.35;;;;;;;;;;5027719;28;20049;-71
2022/11/23 07:35:37;;;;;;;27.48;8.90;;;;;;;;;;5043417;28;20045;-71
2022/11/23 07:38:06;;;;;;;20.70;8.63;;;;;;;;;;5031569;28;20049;-71
2022/11/23 07:40:32;;;;;;;23.95;8.93;;;;;;;;;;5045458;28;20047;-71
2022/11/23 07:42:59;;;;;;;23.92;8.73;;;;;;;;;;5044568;28;20120;-70
2022/11/23 07:45:26;;;;;;;22.15;8.13;;;;;;;;;;5048272;28;20053;-70
2022/11/23 07:48:02;;;;;;;22.65;8.70;;;;;;;;;;5041528;28;20045;-70
2022/11/23 07:50:28;;;;;;;20.77;7.85;;;;;;;;;;5046569;28;20427;-69
2022/11/23 07:52:54;;;;;;;18.35;7.90;;;;;;;;;;5040099;28;20041;-71
2022/11/23 07:55:20;;;;;;;22.95;8.10;;;;;;;;;;5045269;28;20049;-71
2022/11/23 07:57:46;;;;;;;20.77;8.00;;;;;;;;;;5041032;28;20099;-69
2022/11/23 08:00:12;;;;;;;18.88;8.20;;;;;;;;;;5045138;28;20415;-69
2022/11/23 08:02:39;;;;;;;22.15;8.25;;;;;;;;;;5046965;28;20128;-70
2022/11/23 08:05:05;;;;;;;23.75;7.85;;;;;;;;;;5047652;28;20591;-69
2022/11/23 08:07:31;;;;;;;21.20;7.97;;;;;;;;;;5044085;28;20094;-69
2022/11/23 08:09:57;;;;;;;21.75;8.95;;;;;;;;;;5041067;28;20427;-71
2022/11/23 08:12:23;;;;;;;27.30;8.18;;;;;;;;;;5044609;28;20053;-69
2022/11/23 08:14:49;;;;;;;29.23;7.75;;;;;;;;;;5045340;28;20029;-69
2022/11/23 08:17:15;;;;;;;22.70;8.05;;;;;;;;;;5045713;28;20057;-71
2022/11/23 08:19:41;;;;;;;23.65;8.15;;;;;;;;;;5044010;28;20041;-70
2022/11/23 08:22:07;;;;;;;23.95;8.13;;;;;;;;;;5047744;28;20048;-70
2022/11/23 08:24:33;;;;;;;25.33;8.27;;;;;;;;;;5045832;28;20045;-70
2022/11/23 08:26:59;;;;;;;22.63;7.68;;;;;;;;;;5048286;28;20068;-70
2022/11/23 08:29:25;;;;;;;22.27;8.20;;;;;;;;;;5029304;28;20053;-69
2022/11/23 08:31:51;;;;;;;24.13;7.85;;;;;;;;;;5037477;28;20408;-69
2022/11/23 08:34:18;;;;;;;25.42;7.85;;;;;;;;;;5042120;28;20041;-68
2022/11/23 08:36:44;;;;;;;21.63;7.45;;;;;;;;;;5046678;28;20061;-70
2022/11/23 08:39:11;;;;;;;28.13;8.20;;;;;;;;;;5046950;28;20396;-69
2022/11/23 08:41:37;;;;;;;23.85;7.35;;;;;;;;;;5049070;28;20495;-69
2022/11/23 08:44:04;;;;;;;16.92;6.78;;;;;;;;;;5049546;28;20047;-70
2022/11/23 08:46:30;;;;;;;22.42;6.88;;;;;;;;;;5042102;28;20045;-69
2022/11/23 08:48:56;;;;;;;18.70;6.68;;;;;;;;;;5032753;28;20056;-69
2022/11/23 08:51:22;;;;;;;15.85;6.63;;;;;;;;;;5045868;28;20401;-70
2022/11/23 08:53:49;;;;;;;22.05;6.80;;;;;;;;;;5044431;28;20044;-70
2022/11/23 08:56:15;;;;;;;19.00;7.03;;;;;;;;;;5044102;28;20112;-70
2022/11/23 08:58:40;;;;;;;22.98;6.35;;;;;;;;;;5047053;28;20099;-68
2022/11/23 09:01:08;;;;;;;23.08;6.40;;;;;;;;;;5050009;28;20049;-69
2022/11/23 09:03:34;;;;;;;16.92;5.95;;;;;;;;;;5045142;28;20692;-70
2022/11/23 09:06:00;;;;;;;22.98;6.15;;;;;;;;;;5047468;28;20084;-70
2022/11/23 09:08:26;;;;;;;18.85;5.57;;;;;;;;;;5044906;28;20063;-70
2022/11/23 09:10:52;;;;;;;21.40;6.75;;;;;;;;;;5047932;28;20041;-69
2022/11/23 09:13:18;;;;;;;21.30;5.70;;;;;;;;;;5043039;28;20462;-70
2022/11/23 09:15:45;;;;;;;22.63;5.30;;;;;;;;;;5047381;28;20045;-69
2022/11/23 09:18:11;;;;;;;20.92;5.60;;;;;;;;;;5049436;28;20364;-70
2022/11/23 09:20:39;;;;;;;22.50;5.85;;;;;;;;;;5050356;28;20533;-69
2022/11/23 09:23:05;;;;;;;13.50;4.47;;;;;;;;;;5048271;28;20083;-70
2022/11/23 09:25:31;;;;;;;21.00;5.00;;;;;;;;;;5048216;28;20056;-70
2022/11/23 09:28:03;;;;;;;20.10;5.22;;;;;;;;;;5049641;28;20044;-70
2022/11/23 09:30:29;;;;;;;24.53;5.20;;;;;;;;;;5049435;28;20052;-70
2022/11/23 09:32:56;;;;;;;21.27;4.90;;;;;;;;;;5047681;28;20072;-70
2022/11/23 09:35:24;;;;;;;20.17;5.95;;;;;;;;;;5045423;28;20045;-70
2022/11/23 09:37:54;;;;;;;22.15;4.57;;;;;;;;;;5044946;28;20048;-70
2022/11/23 09:40:20;;;;;;;18.00;5.03;;;;;;;;;;5045134;28;20041;-68
2022/11/23 09:42:46;;;;;;;14.77;4.55;;;;;;;;;;5044982;28;20040;-70
2022/11/23 09:45:33;;;;;;;17.90;4.10;;;;;;;;;;5041970;28;20063;-69
2022/11/23 09:48:00;;;;;;;20.30;3.80;;;;;;;;;;5041591;28;20037;-69
2022/11/23 09:50:46;;;;;;;16.63;3.95;;;;;;;;;;5043044;28;20068;-68
2022/11/23 09:53:14;;;;;;;20.15;4.00;;;;;;;;;;5047333;28;20052;-69
2022/11/23 09:55:44;;;;;;;18.20;4.20;;;;;;;;;;5047126;28;20049;-68
2022/11/23 09:58:15;;;;;;;21.23;4.00;;;;;;;;;;5047851;28;20451;-68
2022/11/23 10:00:56;;;;;;;14.60;3.85;;;;;;;;;;5045454;28;20040;-68
2022/11/23 10:03:22;;;;;;;15.40;3.75;;;;;;;;;;5046091;28;20044;-68
2022/11/23 10:06:07;;;;;;;18.40;4.03;;;;;;;;;;5047802;28;20037;-70
2022/11/23 10:08:44;;;;;;;18.23;4.30;;;;;;;;;;5045606;28;20458;-70
2022/11/23 10:11:29;;;;;;;19.58;3.97;;;;;;;;;;5045408;28;20131;-69
2022/11/23 10:13:55;;;;;;;13.75;3.75;;;;;;;;;;5044761;28;20045;-70
2022/11/23 10:16:27;;;;;;;18.02;4.30;;;;;;;;;;5034851;28;20195;-69
2022/11/23 10:19:00;;;;;;;17.15;3.45;;;;;;;;;;5045419;28;20101;-68
2022/11/23 10:21:34;;;;;;;18.98;3.88;;;;;;;;;;5046203;28;20048;-69
2022/11/23 10:24:03;;;;;;;17.95;4.43;;;;;;;;;;5047438;28;20120;-68
2022/11/23 10:26:35;;;;;;;15.85;3.40;;;;;;;;;;5047222;28;20057;-69
2022/11/23 10:29:14;;;;;;;17.38;3.85;;;;;;;;;;5046359;28;20048;-70
2022/11/23 10:31:43;;;;;;;18.83;3.58;;;;;;;;;;5042577;28;20048;-71
2022/11/23 10:34:26;;;;;;;21.73;3.70;;;;;;;;;;5028492;28;20110;-70
2022/11/23 10:36:56;;;;;;;20.65;3.95;;;;;;;;;;5046974;28;20041;-70
2022/11/23 10:39:22;;;;;;;15.85;3.22;;;;;;;;;;5046492;28;20136;-69
2022/11/23 10:41:50;;;;;;;16.08;3.45;;;;;;;;;;5045962;28;20033;-69
2022/11/23 10:44:30;;;;;;;20.67;3.97;;;;;;;;;;5045448;28;20085;-69
2022/11/23 10:46:56;;;;;;;20.65;4.00;;;;;;;;;;5048838;28;20471;-69
2022/11/23 10:49:30;;;;;;;17.40;4.20;;;;;;;;;;5043845;28;20048;-69
2022/11/23 10:52:04;;;;;;;22.23;4.57;;;;;;;;;;5038043;28;20052;-69
2022/11/23 10:54:35;;;;;;;19.60;3.40;;;;;;;;;;5041141;28;20534;-69
2022/11/23 10:57:03;;;;;;;26.05;3.83;;;;;;;;;;5036689;28;20403;-69
2022/11/23 10:59:29;;;;;;;21.02;3.90;;;;;;;;;;5032655;28;20059;-70
2022/11/23 11:02:15;;;;;;;16.98;3.58;;;;;;;;;;5035546;28;20071;-70
2022/11/23 11:04:41;;;;;;;19.92;3.33;;;;;;;;;;5039177;28;20049;-70
2022/11/23 11:07:22;;;;;;;14.98;3.85;;;;;;;;;;5036299;28;20041;-69
2022/11/23 11:09:53;;;;;;;17.85;3.45;;;;;;;;;;5038238;28;20109;-69
2022/11/23 11:12:19;;;;;;;14.48;3.38;;;;;;;;;;5036738;28;20541;-71
2022/11/23 11:15:03;;;;;;;14.23;3.13;;;;;;;;;;5037388;28;20040;-69
2022/11/23 11:17:33;;;;;;;17.70;3.17;;;;;;;;;;5036929;28;20423;-70
2022/11/23 11:20:00;;;;;;;15.07;3.00;;;;;;;;;;5037665;28;20060;-67
2022/11/23 11:22:26;;;;;;;16.02;3.53;;;;;;;;;;5039409;28;20084;-70
2022/11/23 11:24:52;;;;;;;15.00;4.20;;;;;;;;;;5033447;28;20548;-70
2022/11/23 11:27:26;;;;;;;19.38;3.67;;;;;;;;;;5041339;28;20132;-70
2022/11/23 11:29:54;;;;;;;12.70;2.90;;;;;;;;;;5037039;28;20470;-71
2022/11/23 11:32:25;;;;;;;14.30;3.15;;;;;;;;;;5035402;28;20052;-71
2022/11/23 11:35:10;;;;;;;49.63;5.95;;;;;;;;;;5036752;28;20053;-69
2022/11/23 11:37:38;;;;;;;17.05;3.15;;;;;;;;;;5040561;28;20053;-69
2022/11/23 11:40:30;;;;;;;20.00;4.00;;;;;;;;;;5039557;28;20045;-70
2022/11/23 11:42:59;;;;;;;13.05;3.10;;;;;;;;;;5038370;28;20056;-70
2022/11/23 11:45:28;;;;;;;14.30;2.85;;;;;;;;;;5041771;28;20048;-70
2022/11/23 11:48:14;;;;;;;19.25;3.30;;;;;;;;;;5042170;28;20037;-69
2022/11/23 11:50:48;;;;;;;16.02;3.00;;;;;;;;;;5042881;28;20060;-69
2022/11/23 11:53:16;;;;;;;12.20;2.50;;;;;;;;;;5042571;28;20128;-69
2022/11/23 11:55:56;;;;;;;12.52;2.88;;;;;;;;;;5048027;28;20045;-69
2022/11/23 11:58:24;;;;;;;13.63;2.60;;;;;;;;;;5047980;28;20044;-70
2022/11/23 12:00:51;;;;;;;29.90;3.28;;;;;;;;;;5048320;28;20075;-69
2022/11/23 12:03:41;;;;;;;10.63;2.42;;;;;;;;;;5046109;28;20128;-70
2022/11/23 12:06:10;;;;;;;14.30;2.85;;;;;;;;;;5046019;28;20045;-69
2022/11/23 12:08:59;;;;;;;8.77;2.72;;;;;;;;;;5050598;28;20040;-69
2022/11/23 12:11:25;;;;;;;10.88;2.50;;;;;;;;;;5050795;28;20127;-69
2022/11/23 12:13:55;;;;;;;12.20;2.90;;;;;;;;;;5040468;28;20457;-69
2022/11/23 12:16:25;;;;;;;14.77;2.55;;;;;;;;;;5048698;28;20053;-69
2022/11/23 12:19:03;;;;;;;10.70;2.70;;;;;;;;;;5051775;28;20477;-69
2022/11/23 12:21:47;;;;;;;13.80;2.63;;;;;;;;;;5047142;28;20132;-69
2022/11/23 12:24:32;;;;;;;12.85;2.78;;;;;;;;;;5049532;28;20037;-69
2022/11/23 12:27:04;;;;;;;11.65;2.65;;;;;;;;;;5043003;28;20044;-69
2022/11/23 12:29:37;;;;;;;13.60;2.90;;;;;;;;;;5048469;28;20110;-69
2022/11/23 12:32:22;;;;;;;12.90;2.78;;;;;;;;;;5046884;28;20049;-69
2022/11/23 12:34:51;;;;;;;13.90;2.88;;;;;;;;;;5044651;28;20049;-69
2022/11/23 12:37:38;;;;;;;11.60;2.55;;;;;;;;;;5047010;28;20040;-70
2022/11/23 12:40:12;;;;;;;9.18;2.40;;;;;;;;;;5047173;28;20041;-70
2022/11/23 12:42:38;;;;;;;13.80;2.50;;;;;;;;;;5045279;28;20794;-68
2022/11/23 12:45:23;;;;;;;10.90;2.53;;;;;;;;;;5046368;28;20075;-67
2022/11/23 12:47:57;;;;;;;10.20;2.38;;;;;;;;;;5049210;28;20041;-70
2022/11/23 12:50:29;;;;;;;10.38;2.05;;;;;;;;;;5046854;28;20037;-69
2022/11/23 12:53:07;;;;;;;11.93;2.33;;;;;;;;;;5046216;28;20289;-71
2022/11/23 12:55:52;;;;;;;8.32;2.40;;;;;;;;;;5043893;28;20045;-71
2022/11/23 12:58:37;;;;;;;9.43;2.40;;;;;;;;;;5046659;28;20114;-72
2022/11/23 13:01:15;;;;;;;9.27;2.25;;;;;;;;;;5042013;28;20446;-71
2022/11/23 13:04:00;;;;;;;8.77;2.05;;;;;;;;;;5059070;28;20175;-71
2022/11/23 13:06:26;;;;;;;11.38;2.72;;;;;;;;;;5047615;28;20052;-71
2022/11/23 13:09:11;;;;;;;6.60;2.05;;;;;;;;;;5042950;28;20048;-72
2022/11/23 13:11:37;;;;;;;16.38;2.20;;;;;;;;;;5046706;28;20075;-72
2022/11/23 13:14:17;;;;;;;7.90;2.17;;;;;;;;;;5041136;28;20072;-71
2022/11/23 13:16:58;;;;;;;9.50;2.38;;;;;;;;;;5041414;28;20045;-72
2022/11/23 13:19:30;;;;;;;10.55;2.03;;;;;;;;;;5046642;28;20091;-72
2022/11/23 13:21:57;;;;;;;14.60;2.58;;;;;;;;;;5038884;28;20045;-71
2022/11/23 13:24:27;;;;;;;7.45;1.95;;;;;;;;;;5046200;28;20830;-72
2022/11/23 13:27:25;;;;;;;10.02;2.40;;;;;;;;;;5043881;28;20072;-72
2022/11/23 13:29:51;;;;;;;10.10;2.30;;;;;;;;;;5040868;28;20045;-72
2022/11/23 13:32:36;;;;;;;11.80;2.25;;;;;;;;;;5045141;28;20377;-70
2022/11/23 13:35:02;;;;;;;9.40;2.17;;;;;;;;;;5040641;28;20546;-70
2022/11/23 13:37:28;;;;;;;11.60;2.45;;;;;;;;;;5047984;28;20055;-69
2022/11/23 13:39:56;;;;;;;8.00;2.10;;;;;;;;;;5048393;28;20635;-69
2022/11/23 13:42:22;;;;;;;9.95;2.10;;;;;;;;;;5046657;28;20045;-71
2022/11/23 13:44:48;;;;;;;8.40;2.40;;;;;;;;;;5041725;28;20052;-71
2022/11/23 13:47:15;;;;;;;6.82;2.10;;;;;;;;;;5046462;28;20423;-72
2022/11/23 13:49:43;;;;;;;8.30;1.88;;;;;;;;;;5049218;28;20120;-71
2022/11/23 13:52:21;;;;;;;8.65;2.30;;;;;;;;;;5049976;28;20068;-71
2022/11/23 13:54:54;;;;;;;7.10;2.00;;;;;;;;;;5059887;28;20094;-71
2022/11/23 13:57:20;;;;;;;7.97;2.03;;;;;;;;;;5049223;28;20055;-72
2022/11/23 13:59:46;;;;;;;7.72;2.00;;;;;;;;;;5048519;28;20051;-71
2022/11/23 14:02:12;;;;;;;10.07;1.70;;;;;;;;;;5049210;28;20048;-71
2022/11/23 14:04:38;;;;;;;8.65;1.98;;;;;;;;;;5048896;28;20407;-71
2022/11/23 14:07:16;;;;;;;13.45;2.58;;;;;;;;;;5044667;28;20040;-71
2022/11/23 14:09:51;;;;;;;9.45;2.38;;;;;;;;;;5044299;28;20118;-71
2022/11/23 14:12:20;;;;;;;7.07;2.30;;;;;;;;;;5049334;28;20051;-71
2022/11/23 14:14:58;;;;;;;9.93;2.03;;;;;;;;;;5028442;28;20098;-71
2022/11/23 14:17:47;;;;;;;9.27;2.20;;;;;;;;;;5049218;28;20049;-70
2022/11/23 14:20:22;;;;;;;11.38;2.20;;;;;;;;;;5045862;28;20040;-70
2022/11/23 14:23:13;;;;;;;7.88;2.00;;;;;;;;;;5047081;28;20037;-71
2022/11/23 14:25:58;;;;;;;9.60;2.42;;;;;;;;;;5044645;28;20049;-70
2022/11/23 14:28:33;;;;;;;9.95;2.10;;;;;;;;;;5049546;28;20048;-70
2022/11/23 14:30:59;;;;;;;10.10;2.15;;;;;;;;;;5044450;28;20128;-70
2022/11/23 14:33:41;;;;;;;6.75;1.80;;;;;;;;;;5043840;28;20124;-70
2022/11/23 14:36:31;;;;;;;8.27;2.05;;;;;;;;;;5045175;28;20045;-71